Time;durP1;ratioP1;P1;durP2;ratioP2;P2;SDS_P1;SDS_P2;PMS_P1;PMS_P2;Temp;Humidity;BMP_temperature;BMP_pressure;BME280_temperature;BME280_humidity;BME280_pressure;Samples;Min_cycle;Max_cycle;Signal;HPM_P1;HPM_P2
2022/09/07 00:00:48;;;;;;;25.95;18.05;;;19.10;99.90;;;;;;5054293;28;20433;-79
2022/09/07 00:03:14;;;;;;;30.75;17.92;;;19.10;99.90;;;;;;5035702;28;20467;-79
2022/09/07 00:05:49;;;;;;;22.88;17.65;;;19.10;99.90;;;;;;5036019;28;20033;-80
2022/09/07 00:08:16;;;;;;;20.23;16.77;;;19.10;99.90;;;;;;5054008;28;20028;-80
2022/09/07 00:10:57;;;;;;;22.98;16.48;;;19.10;99.90;;;;;;5053933;28;20456;-80
2022/09/07 00:13:25;;;;;;;24.75;16.38;;;19.10;99.90;;;;;;5053519;28;20032;-80
2022/09/07 00:15:51;;;;;;;26.55;17.98;;;19.10;99.90;;;;;;5053408;28;20423;-79
2022/09/07 00:18:18;;;;;;;22.50;16.50;;;19.00;99.90;;;;;;5035818;28;20040;-79
2022/09/07 00:20:43;;;;;;;22.92;16.65;;;19.10;99.90;;;;;;5053712;28;20052;-79
2022/09/07 00:23:09;;;;;;;27.13;16.08;;;19.10;99.90;;;;;;5053578;28;20063;-79
2022/09/07 00:25:39;;;;;;;25.88;17.83;;;19.00;99.90;;;;;;5052953;28;20025;-80
2022/09/07 00:28:06;;;;;;;28.25;17.67;;;19.00;99.90;;;;;;5053159;28;20036;-80
2022/09/07 00:30:33;;;;;;;28.73;17.52;;;19.00;99.90;;;;;;5053112;28;20087;-79
2022/09/07 00:32:59;;;;;;;24.13;18.48;;;19.00;99.90;;;;;;5053700;28;20033;-79
2022/09/07 00:35:25;;;;;;;30.48;23.60;;;19.00;99.90;;;;;;5052939;28;20036;-79
2022/09/07 00:37:51;;;;;;;27.35;21.67;;;18.90;99.90;;;;;;5035388;28;20041;-78
2022/09/07 00:40:17;;;;;;;25.92;18.40;;;18.90;99.90;;;;;;5053471;28;20361;-79
2022/09/07 00:42:43;;;;;;;25.73;19.23;;;18.80;99.90;;;;;;5053433;28;20025;-80
2022/09/07 00:45:19;;;;;;;28.42;18.80;;;18.80;99.90;;;;;;5052871;28;20025;-80
2022/09/07 00:48:00;;;;;;;24.23;18.02;;;18.70;99.90;;;;;;5053542;28;20043;-79
2022/09/07 00:50:36;;;;;;;27.30;18.42;;;18.70;99.90;;;;;;5053403;28;20100;-78
2022/09/07 00:53:12;;;;;;;27.58;19.80;;;18.70;99.90;;;;;;5053119;28;20021;-80
2022/09/07 00:55:41;;;;;;;28.80;19.67;;;18.60;99.90;;;;;;5047039;28;20021;-79
2022/09/07 00:58:07;;;;;;;26.17;20.50;;;18.50;99.90;;;;;;5052139;28;20590;-81
2022/09/07 01:00:34;;;;;;;25.48;19.30;;;18.50;99.90;;;;;;5052820;28;20032;-81
2022/09/07 01:03:00;;;;;;;22.98;18.60;;;18.40;99.90;;;;;;5053393;28;20044;-80
2022/09/07 01:05:58;;;;;;;25.80;19.90;;;18.40;99.90;;;;;;5052660;28;20029;-80
2022/09/07 01:08:23;;;;;;;25.90;18.92;;;18.40;99.90;;;;;;5025275;28;20055;-80
2022/09/07 01:10:49;;;;;;;30.70;19.67;;;18.40;99.90;;;;;;5052838;28;20025;-79
2022/09/07 01:13:15;;;;;;;28.63;19.95;;;18.30;99.90;;;;;;5052113;28;20025;-79
2022/09/07 01:16:08;;;;;;;29.15;20.15;;;18.30;99.90;;;;;;5035022;28;20036;-79
2022/09/07 01:18:48;;;;;;;23.90;18.48;;;18.30;99.90;;;;;;5047955;28;20069;-80
2022/09/07 01:21:25;;;;;;;33.15;19.40;;;18.30;99.90;;;;;;5035089;28;20021;-79
2022/09/07 01:24:17;;;;;;;28.85;18.77;;;18.30;99.90;;;;;;5053004;28;20029;-81
2022/09/07 01:26:55;;;;;;;27.30;19.27;;;18.30;99.90;;;;;;5046541;28;20045;-80
2022/09/07 01:29:44;;;;;;;22.95;17.95;;;18.20;99.90;;;;;;5049682;28;20029;-80
2022/09/07 01:32:22;;;;;;;27.15;19.02;;;18.20;99.90;;;;;;5039540;28;20095;-81
2022/09/07 01:34:52;;;;;;;25.10;18.75;;;18.20;99.90;;;;;;5052641;28;20104;-80
2022/09/07 01:37:41;;;;;;;23.50;18.00;;;18.20;99.90;;;;;;5052682;28;20029;-81
2022/09/07 01:40:18;;;;;;;31.33;18.95;;;18.20;99.90;;;;;;5052590;28;20160;-79
2022/09/07 01:43:24;;;;;;;27.83;19.42;;;18.20;99.90;;;;;;5052740;28;20060;-80
2022/09/07 01:45:54;;;;;;;24.42;18.08;;;18.20;99.90;;;;;;4980345;28;20089;-79
2022/09/07 01:48:22;;;;;;;26.50;19.00;;;18.20;99.90;;;;;;4981852;28;20104;-80
2022/09/07 01:51:01;;;;;;;24.75;18.20;;;18.10;99.90;;;;;;4979093;28;20039;-80
2022/09/07 01:53:55;;;;;;;24.83;18.23;;;18.10;99.90;;;;;;4982932;28;20037;-79
2022/09/07 01:56:32;;;;;;;26.15;18.50;;;18.10;99.90;;;;;;4975040;28;20035;-79
2022/09/07 01:59:11;;;;;;;27.98;18.40;;;18.10;99.90;;;;;;4973893;28;20131;-81
2022/09/07 02:01:44;;;;;;;25.55;17.05;;;18.10;99.90;;;;;;4966607;28;20089;-79
2022/09/07 02:04:13;;;;;;;28.75;18.52;;;18.20;99.90;;;;;;4979841;28;20031;-79
2022/09/07 02:06:59;;;;;;;26.80;18.08;;;18.10;99.90;;;;;;4981740;28;20037;-81
2022/09/07 02:09:29;;;;;;;22.98;17.45;;;18.10;99.90;;;;;;4983470;28;20488;-80
2022/09/07 02:11:56;;;;;;;23.48;18.30;;;18.00;99.90;;;;;;4982732;28;20038;-80
2022/09/07 02:14:27;;;;;;;28.88;18.30;;;18.00;99.90;;;;;;4984417;28;20043;-79
2022/09/07 02:17:06;;;;;;;;;;;18.00;99.90;;;;;;4984904;28;20030;-80
2022/09/07 02:19:42;;;;;;;22.67;17.67;;;18.00;99.90;;;;;;4987423;28;19918;-81
2022/09/07 02:22:14;;;;;;;30.65;19.40;;;17.90;99.90;;;;;;5040172;28;20430;-81
2022/09/07 02:24:45;;;;;;;29.58;19.33;;;17.90;99.90;;;;;;5055662;28;20029;-80
2022/09/07 02:27:16;;;;;;;24.38;18.17;;;17.90;99.90;;;;;;5049841;28;20078;-80
2022/09/07 02:29:42;;;;;;;23.57;18.43;;;17.90;99.90;;;;;;5055954;28;20055;-80
2022/09/07 02:32:08;;;;;;;27.42;19.70;;;17.90;99.90;;;;;;5055980;28;20025;-80
2022/09/07 02:34:34;;;;;;;24.92;18.92;;;17.90;99.90;;;;;;5038026;28;20456;-79
2022/09/07 02:37:04;;;;;;;28.48;19.02;;;17.90;99.90;;;;;;5037620;28;20055;-80
2022/09/07 02:39:29;;;;;;;28.70;18.77;;;17.90;99.90;;;;;;5055507;28;20049;-79
2022/09/07 02:41:55;;;;;;;28.27;18.88;;;17.90;99.90;;;;;;5054894;28;20043;-80
2022/09/07 02:44:27;;;;;;;30.15;19.15;;;17.90;99.90;;;;;;5055043;28;20061;-81
2022/09/07 02:46:59;;;;;;;;;;;17.90;99.90;;;;;;5056076;28;20112;-79
2022/09/07 02:49:28;;;;;;;;;;;17.90;99.90;;;;;;5055622;28;19947;-80
2022/09/07 02:52:09;;;;;;;25.73;16.42;;;17.90;99.90;;;;;;5055484;28;19954;-81
2022/09/07 02:54:40;;;;;;;23.60;15.73;;;17.90;99.90;;;;;;5055182;28;20028;-80
2022/09/07 02:57:56;;;;;;;26.35;16.60;;;17.80;99.90;;;;;;5055755;28;20152;-79
2022/09/07 03:00:25;;;;;;;26.98;18.38;;;17.80;99.90;;;;;;5029427;28;20058;-79
2022/09/07 03:02:59;;;;;;;31.90;16.90;;;17.70;99.90;;;;;;5056433;28;20033;-80
2022/09/07 03:05:32;;;;;;;24.58;17.13;;;17.70;99.90;;;;;;5038113;28;20028;-81
2022/09/07 03:08:07;;;;;;;27.55;17.60;;;17.70;99.90;;;;;;5056281;28;20025;-80
2022/09/07 03:10:36;;;;;;;25.42;17.13;;;17.70;99.90;;;;;;5055823;28;20064;-80
2022/09/07 03:13:02;;;;;;;24.27;15.88;;;17.70;99.90;;;;;;5038122;28;20428;-81
2022/09/07 03:15:27;;;;;;;22.35;16.30;;;17.60;99.90;;;;;;5055556;28;20535;-80
2022/09/07 03:17:53;;;;;;;22.55;17.48;;;17.60;99.90;;;;;;5055665;28;20037;-80
2022/09/07 03:20:20;;;;;;;22.13;16.92;;;17.70;99.90;;;;;;5037957;28;20140;-81
2022/09/07 03:22:47;;;;;;;23.05;16.35;;;17.60;99.90;;;;;;5055516;28;20029;-79
2022/09/07 03:25:13;;;;;;;24.73;17.90;;;17.60;99.90;;;;;;5055439;28;20025;-80
2022/09/07 03:27:39;;;;;;;28.17;17.83;;;17.60;99.90;;;;;;5055282;28;20082;-81
2022/09/07 03:30:07;;;;;;;31.23;17.48;;;17.60;99.90;;;;;;5055094;28;20069;-80
2022/09/07 03:32:35;;;;;;;25.63;17.23;;;17.60;99.90;;;;;;5053103;28;20379;-81
2022/09/07 03:35:01;;;;;;;22.27;17.15;;;17.60;99.90;;;;;;5055014;28;20087;-80
2022/09/07 03:37:28;;;;;;;24.08;17.92;;;17.50;99.90;;;;;;5054292;28;20476;-79
2022/09/07 03:39:54;;;;;;;31.77;16.35;;;17.50;99.90;;;;;;5034874;28;20092;-80
2022/09/07 03:42:20;;;;;;;24.35;15.90;;;17.50;99.90;;;;;;5053045;28;20025;-81
2022/09/07 03:44:50;;;;;;;21.98;16.23;;;17.50;99.90;;;;;;5042694;28;20032;-80
2022/09/07 03:47:16;;;;;;;23.95;16.80;;;17.50;99.90;;;;;;5034537;28;20032;-80
2022/09/07 03:49:42;;;;;;;24.05;16.90;;;17.40;99.90;;;;;;5052132;28;20025;-80
2022/09/07 03:52:09;;;;;;;25.02;16.90;;;17.40;99.90;;;;;;5053050;28;20032;-79
2022/09/07 03:54:35;;;;;;;26.42;17.13;;;17.40;99.90;;;;;;5035352;28;20075;-80
2022/09/07 03:57:01;;;;;;;29.65;18.35;;;17.30;99.90;;;;;;5053985;28;20032;-78
2022/09/07 03:59:27;;;;;;;25.65;18.08;;;17.30;99.90;;;;;;5054332;28;20035;-79
2022/09/07 04:01:52;;;;;;;27.02;19.70;;;17.30;99.90;;;;;;5054522;28;20411;-80
2022/09/07 04:04:18;;;;;;;25.42;18.23;;;17.30;99.90;;;;;;5053526;28;20052;-79
2022/09/07 04:06:44;;;;;;;31.25;18.65;;;17.30;99.90;;;;;;5053656;28;20369;-80
2022/09/07 04:09:12;;;;;;;28.42;17.98;;;17.30;99.90;;;;;;5036289;28;20029;-78
2022/09/07 04:11:39;;;;;;;29.27;18.63;;;17.30;99.90;;;;;;5036043;28;20430;-80
2022/09/07 04:14:05;;;;;;;25.77;17.80;;;17.30;99.90;;;;;;5054161;28;20025;-81
2022/09/07 04:16:31;;;;;;;25.25;17.80;;;17.20;99.90;;;;;;5053266;28;20163;-79
2022/09/07 04:18:57;;;;;;;27.65;18.92;;;17.30;99.90;;;;;;5053590;28;20108;-81
2022/09/07 04:21:25;;;;;;;31.30;19.40;;;17.30;99.90;;;;;;5053846;28;20422;-79
2022/09/07 04:23:51;;;;;;;35.22;18.67;;;17.20;99.90;;;;;;5053479;28;20048;-79
2022/09/07 04:26:19;;;;;;;34.80;20.85;;;17.20;99.90;;;;;;5035878;28;20048;-79
2022/09/07 04:28:46;;;;;;;34.63;19.83;;;17.10;99.90;;;;;;5053250;28;20036;-79
2022/09/07 04:31:14;;;;;;;31.65;20.45;;;17.10;99.90;;;;;;5053408;28;20064;-79
2022/09/07 04:33:41;;;;;;;33.30;21.15;;;17.00;99.90;;;;;;5053272;28;20032;-79
2022/09/07 04:36:07;;;;;;;32.50;20.75;;;17.00;99.90;;;;;;5052916;28;20029;-80
2022/09/07 04:38:33;;;;;;;38.22;19.75;;;17.00;99.90;;;;;;5053373;28;20532;-78
2022/09/07 04:41:07;;;;;;;38.63;20.00;;;16.90;99.90;;;;;;5049494;28;20097;-79
2022/09/07 04:43:33;;;;;;;36.20;20.55;;;16.90;99.90;;;;;;5053723;28;20152;-80
2022/09/07 04:46:13;;;;;;;29.40;20.77;;;17.00;99.90;;;;;;5053309;28;20025;-79
2022/09/07 04:48:39;;;;;;;36.40;22.38;;;17.00;99.90;;;;;;5053095;28;20423;-80
2022/09/07 04:51:07;;;;;;;31.75;21.35;;;17.00;99.90;;;;;;5053298;28;20037;-79
2022/09/07 04:53:34;;;;;;;34.92;20.92;;;17.00;99.90;;;;;;5052766;28;20032;-78
2022/09/07 04:56:00;;;;;;;35.75;20.50;;;17.10;99.90;;;;;;5053377;28;20021;-77
2022/09/07 04:58:26;;;;;;;34.63;20.45;;;17.10;99.90;;;;;;5053391;28;20039;-79
2022/09/07 05:00:53;;;;;;;38.75;21.17;;;17.20;99.90;;;;;;5052781;28;20029;-78
2022/09/07 05:03:19;;;;;;;34.65;21.90;;;17.30;99.90;;;;;;5034844;28;20553;-78
2022/09/07 05:05:45;;;;;;;37.42;22.30;;;17.30;99.90;;;;;;5052716;28;20028;-78
2022/09/07 05:08:12;;;;;;;45.53;24.25;;;17.40;99.90;;;;;;5035260;28;20025;-78
2022/09/07 05:10:38;;;;;;;52.40;26.30;;;17.50;99.90;;;;;;5052560;28;20025;-80
2022/09/07 05:13:04;;;;;;;57.40;26.88;;;17.60;99.90;;;;;;5034516;28;20441;-78
2022/09/07 05:15:30;;;;;;;55.17;28.67;;;17.60;99.90;;;;;;5052823;28;20046;-78
2022/09/07 05:17:56;;;;;;;63.45;30.25;;;17.70;99.90;;;;;;5052103;28;20036;-79
2022/09/07 05:20:23;;;;;;;54.10;27.00;;;17.70;99.90;;;;;;5035156;28;20047;-80
2022/09/07 05:22:58;;;;;;;53.33;27.60;;;17.80;99.90;;;;;;5052603;28;20017;-80
2022/09/07 05:25:30;;;;;;;46.33;24.55;;;17.90;99.90;;;;;;5052447;28;20113;-79
2022/09/07 05:27:56;;;;;;;46.17;25.67;;;17.90;99.90;;;;;;5052730;28;20040;-79
2022/09/07 05:30:22;;;;;;;43.38;23.77;;;18.00;99.90;;;;;;5054474;28;20021;-80
2022/09/07 05:32:48;;;;;;;43.83;24.17;;;18.10;99.90;;;;;;5052817;28;20082;-79
2022/09/07 05:35:14;;;;;;;43.22;22.38;;;18.10;99.90;;;;;;5052143;28;20025;-78
2022/09/07 05:37:40;;;;;;;55.00;24.52;;;18.20;99.90;;;;;;5034453;28;20048;-78
2022/09/07 05:40:07;;;;;;;46.25;24.83;;;18.20;99.90;;;;;;5051224;28;20045;-79
2022/09/07 05:42:34;;;;;;;50.10;23.70;;;18.30;99.90;;;;;;5052356;28;20071;-78
2022/09/07 05:45:00;;;;;;;51.65;23.88;;;18.30;99.90;;;;;;5052374;28;20021;-83
2022/09/07 05:47:26;;;;;;;58.30;26.88;;;18.30;99.90;;;;;;5054544;28;20036;-79
2022/09/07 05:49:53;;;;;;;56.30;27.50;;;18.40;99.90;;;;;;5056624;28;20104;-80
2022/09/07 05:52:20;;;;;;;44.55;23.45;;;18.40;99.90;;;;;;5038566;28;20025;-79
2022/09/07 05:54:46;;;;;;;41.17;22.17;;;18.30;99.90;;;;;;5056010;28;20037;-78
2022/09/07 05:57:12;;;;;;;52.20;24.73;;;18.40;99.90;;;;;;5056600;28;20057;-79
2022/09/07 05:59:38;;;;;;;38.90;23.83;;;18.50;99.90;;;;;;5038744;28;20063;-81
2022/09/07 06:02:04;;;;;;;45.10;24.98;;;18.60;99.90;;;;;;5038094;28;20032;-80
2022/09/07 06:04:30;;;;;;;41.15;24.70;;;18.80;99.90;;;;;;5056131;28;20033;-79
2022/09/07 06:06:56;;;;;;;43.95;22.80;;;18.90;99.90;;;;;;5056198;28;20028;-80
2022/09/07 06:09:22;;;;;;;35.00;20.73;;;19.00;99.90;;;;;;5055961;28;20037;-79
2022/09/07 06:11:48;;;;;;;40.63;21.73;;;19.10;99.90;;;;;;5056254;28;20099;-79
2022/09/07 06:14:14;;;;;;;38.25;21.63;;;19.20;99.90;;;;;;5056976;28;20464;-78
2022/09/07 06:16:40;;;;;;;35.30;19.40;;;19.30;99.90;;;;;;5056674;28;20055;-80
2022/09/07 06:19:07;;;;;;;29.27;20.52;;;19.40;99.90;;;;;;5056456;28;20368;-78
2022/09/07 06:21:37;;;;;;;30.00;16.42;;;19.50;99.90;;;;;;5056925;28;20082;-78
2022/09/07 06:24:04;;;;;;;24.75;14.80;;;19.60;99.90;;;;;;5056543;28;20029;-78
2022/09/07 06:26:30;;;;;;;25.83;15.77;;;19.70;99.90;;;;;;5056511;28;20021;-78
2022/09/07 06:28:56;;;;;;;29.33;17.40;;;19.80;99.90;;;;;;5056804;28;20040;-79
2022/09/07 06:31:23;;;;;;;26.15;17.27;;;19.90;99.90;;;;;;5056416;28;20029;-80
2022/09/07 06:33:50;;;;;;;30.50;17.75;;;20.00;99.90;;;;;;5056850;28;20021;-81
2022/09/07 06:36:19;;;;;;;22.65;16.05;;;19.90;99.90;;;;;;5038772;28;20075;-79
2022/09/07 06:38:47;;;;;;;30.95;17.67;;;20.00;99.90;;;;;;5056058;28;20052;-79
2022/09/07 06:41:20;;;;;;;29.85;17.05;;;20.00;99.90;;;;;;5056664;28;20120;-80
2022/09/07 06:43:46;;;;;;;31.77;18.20;;;20.00;99.90;;;;;;5038591;28;20029;-79
2022/09/07 06:46:13;;;;;;;33.13;18.20;;;20.00;99.90;;;;;;5056783;28;20032;-78
2022/09/07 06:48:39;;;;;;;35.63;18.38;;;20.00;99.90;;;;;;5038367;28;20058;-80
2022/09/07 06:51:10;;;;;;;31.23;18.70;;;20.00;99.90;;;;;;5038319;28;20048;-80
2022/09/07 06:53:37;;;;;;;32.00;20.67;;;20.20;99.90;;;;;;5056475;28;20033;-78
2022/09/07 06:56:12;;;;;;;35.58;21.35;;;20.40;99.90;;;;;;5038191;28;20033;-78
2022/09/07 06:58:38;;;;;;;34.00;20.85;;;20.40;99.90;;;;;;5055757;28;20110;-79
2022/09/07 07:01:11;;;;;;;34.40;21.08;;;20.50;99.90;;;;;;5056048;28;20029;-77
2022/09/07 07:03:36;;;;;;;32.53;19.33;;;20.60;99.90;;;;;;5038188;28;20036;-80
2022/09/07 07:06:03;;;;;;;38.95;19.80;;;20.80;99.90;;;;;;5056360;28;20059;-79
2022/09/07 07:08:30;;;;;;;35.00;19.00;;;20.90;99.90;;;;;;5055873;28;20029;-80
2022/09/07 07:11:04;;;;;;;32.25;20.83;;;20.90;99.90;;;;;;5055919;28;20032;-78
2022/09/07 07:13:30;;;;;;;25.77;20.83;;;21.00;99.90;;;;;;5055939;28;20041;-80
2022/09/07 07:16:10;;;;;;;27.65;18.95;;;21.20;99.90;;;;;;5037848;28;20365;-78
2022/09/07 07:18:35;;;;;;;30.40;19.15;;;21.40;99.90;;;;;;5037655;28;20025;-78
2022/09/07 07:21:04;;;;;;;28.05;18.13;;;21.60;99.90;;;;;;5055865;28;20029;-79
2022/09/07 07:23:30;;;;;;;28.15;18.45;;;21.70;99.90;;;;;;5055432;28;20021;-79
2022/09/07 07:26:01;;;;;;;25.48;17.33;;;21.80;99.90;;;;;;5055261;28;20103;-79
2022/09/07 07:28:27;;;;;;;23.33;15.77;;;21.90;99.90;;;;;;5055789;28;20116;-79
2022/09/07 07:30:57;;;;;;;23.77;15.65;;;22.10;99.90;;;;;;5055209;28;20124;-78
2022/09/07 07:33:23;;;;;;;26.98;15.80;;;22.30;99.90;;;;;;5055635;28;20456;-78
2022/09/07 07:35:50;;;;;;;27.17;16.05;;;22.40;99.90;;;;;;5037605;28;20075;-77
2022/09/07 07:38:16;;;;;;;21.83;15.05;;;22.40;99.90;;;;;;5054266;28;20094;-78
2022/09/07 07:40:41;;;;;;;23.95;15.57;;;22.40;99.90;;;;;;5037435;28;20410;-76
2022/09/07 07:43:07;;;;;;;24.92;14.77;;;22.50;99.90;;;;;;5055303;28;20025;-77
2022/09/07 07:45:33;;;;;;;19.73;13.88;;;22.50;99.90;;;;;;5055100;28;20057;-77
2022/09/07 07:47:59;;;;;;;20.33;13.13;;;22.50;99.90;;;;;;5055584;28;20032;-77
2022/09/07 07:50:24;;;;;;;20.70;14.93;;;22.60;99.90;;;;;;5037840;28;20139;-77
2022/09/07 07:52:50;;;;;;;25.30;15.98;;;22.60;99.90;;;;;;5055241;28;20444;-78
2022/09/07 07:55:16;;;;;;;23.20;15.98;;;22.70;99.90;;;;;;5055135;28;20025;-77
2022/09/07 07:57:42;;;;;;;23.90;16.52;;;22.70;99.90;;;;;;5036868;28;20033;-78
2022/09/07 08:00:08;;;;;;;24.33;15.63;;;22.70;99.90;;;;;;5055427;28;20117;-78
2022/09/07 08:02:34;;;;;;;22.80;13.02;;;22.70;99.90;;;;;;5055100;28;20032;-77
2022/09/07 08:05:00;;;;;;;26.48;13.10;;;22.80;99.90;;;;;;5054842;28;20097;-78
2022/09/07 08:07:26;;;;;;;23.75;16.33;;;22.80;99.90;;;;;;5055246;28;20449;-79
2022/09/07 08:09:52;;;;;;;29.27;17.25;;;22.90;99.90;;;;;;5054065;28;20104;-77
2022/09/07 08:12:19;;;;;;;21.65;16.13;;;23.10;99.90;;;;;;5053764;28;20031;-80
2022/09/07 08:14:47;;;;;;;23.20;15.98;;;23.10;99.90;;;;;;5053927;28;20379;-79
2022/09/07 08:17:15;;;;;;;40.25;18.63;;;23.20;99.90;;;;;;5055006;28;20098;-78
2022/09/07 08:19:41;;;;;;;23.30;17.58;;;23.40;99.90;;;;;;5036446;28;20032;-79
2022/09/07 08:22:08;;;;;;;30.52;14.77;;;23.50;99.90;;;;;;5036692;28;20387;-78
2022/09/07 08:24:34;;;;;;;20.45;13.90;;;23.60;99.90;;;;;;5054678;28;20029;-79
2022/09/07 08:27:00;;;;;;;23.02;16.60;;;23.60;99.90;;;;;;5054151;28;20025;-80
2022/09/07 08:29:26;;;;;;;31.42;17.05;;;23.70;99.90;;;;;;5054500;28;20037;-81
2022/09/07 08:31:51;;;;;;;25.05;17.13;;;23.80;99.90;;;;;;5054478;28;20067;-79
2022/09/07 08:34:17;;;;;;;21.48;15.30;;;23.80;99.90;;;;;;5053613;28;20060;-79
2022/09/07 08:36:43;;;;;;;22.15;16.13;;;23.90;99.90;;;;;;5035759;28;20025;-80
2022/09/07 08:39:09;;;;;;;21.65;16.88;;;24.00;99.90;;;;;;5035860;28;20052;-78
2022/09/07 08:42:00;;;;;;;21.90;16.48;;;24.10;99.90;;;;;;5054352;28;20070;-79
2022/09/07 08:44:46;;;;;;;26.00;17.10;;;;;;;;;;5053955;28;20032;-78
2022/09/07 08:47:12;;;;;;;21.50;16.33;;;;;;;;;;5053421;28;20380;-78
2022/09/07 08:49:43;;;;;;;21.15;15.90;;;;;;;;;;5053930;28;20024;-79
2022/09/07 08:52:13;;;;;;;24.58;16.38;;;;;;;;;;5036213;28;20029;-80
2022/09/07 08:54:42;;;;;;;19.88;17.30;;;;;;;;;;5053772;28;20100;-80
2022/09/07 08:57:08;;;;;;;22.73;16.67;;;;;;;;;;5053220;28;20021;-80
2022/09/07 08:59:45;;;;;;;19.23;16.38;;;;;;;;;;5053694;28;20036;-78
2022/09/07 09:02:15;;;;;;;21.10;15.32;;;;;;;;;;5053820;28;20109;-81
2022/09/07 09:04:42;;;;;;;24.05;15.98;;;;;;;;;;5054001;28;20040;-79
2022/09/07 09:07:17;;;;;;;21.08;16.02;;;;;;;;;;5053965;28;20525;-78
2022/09/07 09:10:01;;;;;;;21.15;14.77;;;;;;;;;;5035995;28;20029;-81
2022/09/07 09:12:47;;;;;;;18.23;14.80;;;;;;;;;;5053792;28;20501;-79
2022/09/07 09:15:29;;;;;;;21.10;15.18;;;;;;;;;;5053697;28;20032;-78
2022/09/07 09:17:58;;;;;;;21.75;16.15;;;;;;;;;;5053391;28;20021;-79
2022/09/07 09:20:30;;;;;;;18.33;16.45;;;;;;;;;;5035738;28;20029;-80
2022/09/07 09:23:00;;;;;;;17.13;15.38;;;;;;;;;;5053420;28;20029;-80
2022/09/07 09:25:32;;;;;;;20.75;16.50;;;;;;;;;;5035826;28;20471;-80
2022/09/07 09:27:58;;;;;;;24.30;16.02;;;;;;;;;;5053749;28;20467;-79
2022/09/07 09:30:26;;;;;;;22.10;16.38;;;;;;;;;;5035841;28;20025;-79
2022/09/07 09:33:11;;;;;;;19.08;14.70;;;;;;;;;;5053521;28;20067;-79
2022/09/07 09:35:38;;;;;;;18.77;15.80;;;;;;;;;;5053000;28;20021;-79
2022/09/07 09:38:04;;;;;;;17.52;14.88;;;;;;;;;;5035750;28;20021;-79
2022/09/07 09:40:32;;;;;;;22.83;15.52;;;;;;;;;;5053448;28;20045;-79
2022/09/07 09:43:06;;;;;;;20.25;15.45;;;;;;;;;;5053282;28;20021;-79
2022/09/07 09:45:36;;;;;;;20.13;15.10;;;;;;;;;;5053421;28;20024;-80
2022/09/07 09:48:08;;;;;;;18.30;14.93;;;;;;;;;;5053625;28;20028;-80
2022/09/07 09:50:37;;;;;;;18.55;15.18;;;;;;;;;;5053314;28;20021;-78
2022/09/07 09:53:05;;;;;;;19.08;14.98;;;;;;;;;;5053013;28;20468;-81
2022/09/07 09:55:36;;;;;;;17.20;15.45;;;;;;;;;;5053598;28;20021;-80
2022/09/07 09:58:04;;;;;;;18.08;15.07;;;;;;;;;;5053190;28;20484;-76
2022/09/07 10:00:31;;;;;;;18.20;16.10;;;;;;;;;;5053192;28;20079;-76
2022/09/07 10:03:05;;;;;;;20.58;15.85;;;;;;;;;;5053220;28;20033;-76
2022/09/07 10:05:41;;;;;;;17.50;15.32;;;;;;;;;;5053314;28;20349;-75
2022/09/07 10:08:18;;;;;;;20.48;15.55;;;;;;;;;;5035360;28;20144;-76
2022/09/07 10:10:55;;;;;;;18.27;14.48;;;;;;;;;;5053009;28;20025;-77
2022/09/07 10:13:23;;;;;;;17.67;15.10;;;;;;;;;;5053295;28;20078;-77
2022/09/07 10:15:53;;;;;;;18.80;14.95;;;;;;;;;;5035216;28;20032;-77
2022/09/07 10:18:23;;;;;;;22.92;15.48;;;;;;;;;;5052823;28;20051;-77
2022/09/07 10:20:49;;;;;;;21.30;15.30;;;;;;;;;;5053151;28;20075;-77
2022/09/07 10:23:20;;;;;;;19.70;14.15;;;;;;;;;;5053213;28;20021;-76
2022/09/07 10:25:46;;;;;;;15.57;14.00;;;;;;;;;;5052744;28;20044;-75
2022/09/07 10:28:18;;;;;;;16.27;14.57;;;;;;;;;;5052921;28;20025;-76
2022/09/07 10:31:00;;;;;;;18.98;15.30;;;;;;;;;;5034617;28;20349;-76
2022/09/07 10:33:26;;;;;;;18.23;16.40;;;;;;;;;;5055178;28;20066;-77
2022/09/07 10:35:59;;;;;;;16.73;14.38;;;;;;;;;;5055610;28;20533;-78
2022/09/07 10:38:28;;;;;;;18.80;15.35;;;;;;;;;;5055964;28;20037;-75
2022/09/07 10:40:54;;;;;;;19.23;14.73;;;;;;;;;;5056698;28;20034;-75
2022/09/07 10:43:26;;;;;;;18.02;15.63;;;;;;;;;;5056412;28;20032;-75
2022/09/07 10:46:04;;;;;;;16.02;14.57;;;;;;;;;;5056459;28;20032;-79
2022/09/07 10:48:49;;;;;;;18.73;16.15;;;;;;;;;;5056526;28;20583;-77
2022/09/07 10:51:17;;;;;;;17.90;15.40;;;;;;;;;;5056698;28;20072;-76
2022/09/07 10:53:53;;;;;;;17.42;15.63;;;;;;;;;;5038401;28;20017;-76
2022/09/07 10:56:27;;;;;;;17.30;15.52;;;;;;;;;;5038486;28;20021;-76
2022/09/07 10:59:05;;;;;;;17.40;15.73;;;;;;;;;;5056220;28;20025;-76
2022/09/07 11:01:34;;;;;;;18.80;15.00;;;;;;;;;;5038426;28;20086;-76
2022/09/07 11:04:10;;;;;;;17.17;15.57;;;;;;;;;;5055998;28;20158;-77
2022/09/07 11:06:40;;;;;;;17.60;15.13;;;;;;;;;;5055782;28;20021;-75
2022/09/07 11:09:06;;;;;;;18.23;16.43;;;;;;;;;;5056350;28;20183;-77
2022/09/07 11:11:33;;;;;;;20.10;15.75;;;;;;;;;;5055578;28;20025;-76
2022/09/07 11:14:10;;;;;;;17.77;16.13;;;;;;;;;;5038246;28;20044;-75
2022/09/07 11:16:45;;;;;;;18.30;15.65;;;;;;;;;;5055767;28;20021;-76
2022/09/07 11:19:14;;;;;;;17.90;15.82;;;;;;;;;;5055743;28;20472;-75
2022/09/07 11:21:51;;;;;;;16.52;14.57;;;;;;;;;;5055740;28;20043;-75
2022/09/07 11:24:37;;;;;;;16.45;14.95;;;;;;;;;;5055677;28;20069;-76
2022/09/07 11:27:24;;;;;;;17.50;15.70;;;;;;;;;;5055701;28;20036;-77
2022/09/07 11:29:51;;;;;;;16.67;15.05;;;;;;;;;;5038705;28;20437;-76
2022/09/07 11:32:22;;;;;;;16.77;15.07;;;;;;;;;;5055461;28;20025;-76
2022/09/07 11:34:53;;;;;;;22.15;16.35;;;;;;;;;;5037683;28;20490;-75
2022/09/07 11:37:34;;;;;;;19.70;15.70;;;;;;;;;;5055659;28;20025;-76
2022/09/07 11:40:10;;;;;;;18.95;16.98;;;;;;;;;;5055173;28;20052;-75
2022/09/07 11:42:58;;;;;;;16.50;14.95;;;;;;;;;;5055433;28;20017;-75
2022/09/07 11:45:53;;;;;;;15.32;13.98;;;;;;;;;;5053684;28;20044;-76
2022/09/07 11:48:29;;;;;;;16.33;14.65;;;;;;;;;;4938985;29;20131;-75
2022/09/07 11:50:59;;;;;;;16.95;15.18;;;;;;;;;;4955102;29;20023;-77
2022/09/07 11:53:28;;;;;;;17.95;14.73;;;;;;;;;;4954762;29;20111;-75
2022/09/07 11:55:56;;;;;;;15.65;14.25;;;;;;;;;;4954858;29;20039;-76
2022/09/07 11:58:29;;;;;;;16.27;14.63;;;;;;;;;;4954851;29;20044;-75
2022/09/07 12:00:55;;;;;;;15.93;14.57;;;;;;;;;;4954879;29;20053;-76
2022/09/07 12:04:00;;;;;;;15.93;14.40;;;;;;;;;;4954986;29;20114;-77
2022/09/07 12:06:45;;;;;;;17.15;15.50;;;;;;;;;;4881742;29;20484;-75
2022/09/07 12:09:16;;;;;;;16.05;14.55;;;;;;;;;;4897564;29;20033;-75
2022/09/07 12:11:42;;;;;;;15.80;14.20;;;;;;;;;;4882089;29;20047;-76
2022/09/07 12:14:16;;;;;;;18.45;14.90;;;;;;;;;;4897814;29;20028;-77
2022/09/07 12:16:51;;;;;;;15.27;13.95;;;;;;;;;;4897715;29;20025;-76
2022/09/07 12:19:17;;;;;;;15.30;13.90;;;;;;;;;;4897540;29;20048;-77
2022/09/07 12:21:52;;;;;;;15.45;13.85;;;;;;;;;;4897179;29;20031;-76
2022/09/07 12:24:37;;;;;;;14.88;13.30;;;;;;;;;;4909998;29;20035;-77
2022/09/07 12:27:06;;;;;;;19.15;13.82;;;;;;;;;;4935229;29;20119;-77
2022/09/07 12:29:32;;;;;;;15.63;14.20;;;;;;;;;;4935103;29;20031;-76
2022/09/07 12:31:59;;;;;;;21.98;14.30;;;;;;;;;;4935252;29;20024;-77
2022/09/07 12:34:32;;;;;;;14.63;13.10;;;;;;;;;;4934967;29;20034;-76
2022/09/07 12:36:59;;;;;;;14.98;13.57;;;;;;;;;;4984672;28;20395;-76
2022/09/07 12:39:27;;;;;;;16.23;12.90;;;;;;;;;;5054185;28;20059;-77
2022/09/07 12:42:05;;;;;;;14.18;12.85;;;;;;;;;;5054166;28;20028;-75
2022/09/07 12:44:33;;;;;;;14.55;13.15;;;;;;;;;;5054244;28;20013;-75
2022/09/07 12:47:02;;;;;;;14.18;12.75;;;;;;;;;;5054034;28;20025;-76
2022/09/07 12:49:41;;;;;;;20.85;13.82;;;;;;;;;;5053824;28;20063;-77
2022/09/07 12:52:26;;;;;;;15.73;13.13;;;;;;;;;;5054110;28;20063;-76
2022/09/07 12:54:55;;;;;;;15.15;13.13;;;;;;;;;;5036022;28;20116;-78
2022/09/07 12:57:50;;;;;;;20.08;13.07;;;;;;;;;;5036033;28;20567;-76
2022/09/07 13:00:16;;;;;;;14.52;13.05;;;;;;;;;;4953624;29;20048;-75
2022/09/07 13:02:54;;;;;;;16.52;12.75;;;;;;;;;;4953474;29;20027;-76
2022/09/07 13:05:27;;;;;;;12.63;11.38;;;;;;;;;;4953553;29;20106;-78
2022/09/07 13:08:02;;;;;;;15.20;13.68;;;;;;;;;;4937543;29;20101;-76
2022/09/07 13:10:35;;;;;;;20.35;12.07;;;;;;;;;;4953496;29;20546;-77
2022/09/07 13:13:06;;;;;;;13.70;12.30;;;;;;;;;;4937504;29;20027;-76
2022/09/07 13:15:32;;;;;;;17.08;13.95;;;;;;;;;;4953488;29;20433;-77
2022/09/07 13:17:59;;;;;;;15.10;13.57;;;;;;;;;;4953564;29;20043;-76
2022/09/07 13:20:30;;;;;;;15.18;13.57;;;;;;;;;;4953369;29;20490;-75